CES713 ZPPP-VCBI
Flight info
| Callsign | CES713 |
|---|---|
| Flight time | 4h 8m |
| Altitude | 30100 |
| Route | GULOT3D GULOT A599 LINSO/N0485F300 A599 LSO/N0482F320 DCT 225408N0965953E 224649N0955358E 224026N0950040E 223249N0935955E DCT CHILA A599 CTG B465 DAKID DCT 220020N0903156E 214849N0895959E 212622N0885952E 210310N0875959E DCT KAKID A465 NIKIR/N0481F340 A465 DOKET DCT 145959N0812826E DCT GURAS A465 SAGOR DCT BI483 DCT BI482 DCT BI471 DCT IKONA DCT ONIKO |
| Aircraft | B738/M-SDGIJ1LRWY/SB1 |
Departure
| Time | 2026-04-25 12:01 |
|---|---|
| Airport | Kunming Changshui International Airport (ZPPP) |
Arrival
| Time | 2026-04-25 16:10 |
|---|---|
| Airport | Bandaranaike International Colombo Airport (VCBI) |
| Time | Latitude | Longitude | Altitude | Speed | Heading |
|---|---|---|---|---|---|
| 2026-04-25 11:23 | 25.11440 | 102.93513 | 6915 ft | 0 kts | 218° |
| 2026-04-25 11:49 | 25.11443 | 102.93515 | 6915 ft | 2 kts | 219° |
| 2026-04-25 11:49 | 25.11454 | 102.93526 | 6915 ft | 2 kts | 220° |
| 2026-04-25 11:50 | 25.11466 | 102.93536 | 6915 ft | 2 kts | 219° |
| 2026-04-25 11:50 | 25.11478 | 102.93547 | 6915 ft | 2 kts | 219° |
| 2026-04-25 11:50 | 25.11490 | 102.93558 | 6915 ft | 2 kts | 219° |
| 2026-04-25 11:50 | 25.11500 | 102.93567 | 6915 ft | 2 kts | 229° |
| 2026-04-25 11:51 | 25.11506 | 102.93581 | 6915 ft | 2 kts | 261° |
| 2026-04-25 11:51 | 25.11506 | 102.93597 | 6915 ft | 2 kts | 289° |
| 2026-04-25 11:51 | 25.11498 | 102.93612 | 6915 ft | 2 kts | 314° |
| 2026-04-25 11:51 | 25.11488 | 102.93624 | 6915 ft | 1 kts | 307° |
| 2026-04-25 11:52 | 25.11487 | 102.93626 | 6915 ft | 0 kts | 307° |
| 2026-04-25 11:54 | 25.11518 | 102.93581 | 6915 ft | 9 kts | 308° |
| 2026-04-25 11:55 | 25.11555 | 102.93531 | 6915 ft | 7 kts | 309° |
| 2026-04-25 11:55 | 25.11591 | 102.93488 | 6915 ft | 10 kts | 315° |
| 2026-04-25 11:55 | 25.11646 | 102.93421 | 6915 ft | 11 kts | 309° |
| 2026-04-25 11:55 | 25.11698 | 102.93374 | 6915 ft | 8 kts | 348° |
| 2026-04-25 11:56 | 25.11752 | 102.93396 | 6915 ft | 10 kts | 38° |
| 2026-04-25 11:56 | 25.11836 | 102.93469 | 6915 ft | 17 kts | 39° |
| 2026-04-25 11:56 | 25.11945 | 102.93563 | 6915 ft | 21 kts | 38° |
| 2026-04-25 11:56 | 25.12066 | 102.93669 | 6915 ft | 21 kts | 39° |
| 2026-04-25 11:57 | 25.12181 | 102.93767 | 6915 ft | 19 kts | 38° |
| 2026-04-25 11:57 | 25.12283 | 102.93858 | 6914 ft | 19 kts | 38° |
| 2026-04-25 11:57 | 25.12383 | 102.93945 | 6914 ft | 17 kts | 38° |
| 2026-04-25 11:57 | 25.12472 | 102.94021 | 6914 ft | 15 kts | 38° |
| 2026-04-25 11:58 | 25.12553 | 102.94092 | 6914 ft | 16 kts | 39° |
| 2026-04-25 11:58 | 25.12663 | 102.94189 | 6914 ft | 21 kts | 38° |
| 2026-04-25 11:58 | 25.12776 | 102.94286 | 6914 ft | 19 kts | 38° |
| 2026-04-25 11:58 | 25.12848 | 102.94347 | 6914 ft | 9 kts | 28° |
| 2026-04-25 11:59 | 25.12904 | 102.94342 | 6914 ft | 7 kts | 325° |
| 2026-04-25 11:59 | 25.12933 | 102.94308 | 6914 ft | 5 kts | 304° |
| 2026-04-25 11:59 | 25.12969 | 102.94256 | 6914 ft | 11 kts | 310° |
| 2026-04-25 12:00 | 25.12989 | 102.94106 | 6914 ft | 12 kts | 219° |
| 2026-04-25 12:00 | 25.12925 | 102.94050 | 6914 ft | 12 kts | 218° |
| 2026-04-25 12:00 | 25.12165 | 102.93390 | 6915 ft | 128 kts | 219° |
| 2026-04-25 12:01 | 25.11315 | 102.92649 | 6915 ft | 178 kts | 219° |
| 2026-04-25 12:01 | 25.10302 | 102.91737 | 7313 ft | 187 kts | 219° |
| 2026-04-25 12:01 | 25.09420 | 102.90778 | 8077 ft | 181 kts | 228° |
| 2026-04-25 12:01 | 25.08661 | 102.89629 | 8563 ft | 190 kts | 233° |
| 2026-04-25 12:02 | 25.07072 | 102.87204 | 9432 ft | 206 kts | 232° |
| 2026-04-25 12:02 | 25.06232 | 102.85916 | 9878 ft | 214 kts | 231° |
| 2026-04-25 12:02 | 25.05289 | 102.84531 | 10217 ft | 230 kts | 231° |
| 2026-04-25 12:03 | 25.04301 | 102.83097 | 10540 ft | 248 kts | 232° |
| 2026-04-25 12:03 | 25.03228 | 102.81530 | 11040 ft | 259 kts | 232° |
| 2026-04-25 12:03 | 25.02150 | 102.79942 | 11743 ft | 260 kts | 233° |
| 2026-04-25 12:03 | 25.01065 | 102.78344 | 12439 ft | 261 kts | 234° |
| 2026-04-25 12:04 | 24.99995 | 102.76766 | 13133 ft | 261 kts | 235° |
| 2026-04-25 12:04 | 24.98901 | 102.75147 | 13748 ft | 265 kts | 235° |
| 2026-04-25 12:04 | 24.97793 | 102.73504 | 14305 ft | 271 kts | 235° |
| 2026-04-25 12:04 | 24.96820 | 102.71712 | 14665 ft | 283 kts | 251° |
| 2026-04-25 12:05 | 24.96486 | 102.69518 | 14944 ft | 298 kts | 275° |
| 2026-04-25 12:05 | 24.97126 | 102.67316 | 15228 ft | 316 kts | 300° |
| 2026-04-25 12:05 | 24.98626 | 102.65451 | 15545 ft | 334 kts | 317° |
| 2026-04-25 12:05 | 25.00497 | 102.63866 | 15852 ft | 350 kts | 322° |
| 2026-04-25 12:06 | 25.02407 | 102.62083 | 16139 ft | 362 kts | 311° |
| 2026-04-25 12:06 | 25.03986 | 102.59901 | 16420 ft | 375 kts | 303° |
| 2026-04-25 12:06 | 25.05338 | 102.57381 | 16672 ft | 388 kts | 293° |
| 2026-04-25 12:06 | 25.06109 | 102.54475 | 16909 ft | 401 kts | 278° |
| 2026-04-25 12:07 | 25.06220 | 102.51378 | 17358 ft | 410 kts | 267° |
| 2026-04-25 12:07 | 25.05825 | 102.48254 | 17902 ft | 415 kts | 260° |
| 2026-04-25 12:07 | 25.05053 | 102.45162 | 18562 ft | 418 kts | 251° |
| 2026-04-25 12:07 | 25.03920 | 102.42245 | 19140 ft | 423 kts | 245° |
| 2026-04-25 12:08 | 25.02560 | 102.39355 | 19723 ft | 426 kts | 243° |
| 2026-04-25 12:08 | 25.01127 | 102.36502 | 20360 ft | 428 kts | 242° |
| 2026-04-25 12:08 | 24.99664 | 102.33630 | 20969 ft | 430 kts | 241° |
| 2026-04-25 12:08 | 24.98191 | 102.30725 | 21490 ft | 435 kts | 242° |
| 2026-04-25 12:09 | 24.96721 | 102.27784 | 22063 ft | 438 kts | 242° |
| 2026-04-25 12:09 | 24.95260 | 102.24822 | 22622 ft | 441 kts | 242° |
| 2026-04-25 12:09 | 24.93801 | 102.21832 | 23168 ft | 444 kts | 243° |
| 2026-04-25 12:09 | 24.92324 | 102.18784 | 23734 ft | 447 kts | 243° |
| 2026-04-25 12:10 | 24.90856 | 102.15740 | 24230 ft | 450 kts | 243° |
| 2026-04-25 12:10 | 24.89371 | 102.12650 | 24734 ft | 453 kts | 244° |
| 2026-04-25 12:10 | 24.87898 | 102.09581 | 25239 ft | 456 kts | 244° |
| 2026-04-25 12:10 | 24.86403 | 102.06462 | 25750 ft | 458 kts | 244° |
| 2026-04-25 12:11 | 24.84923 | 102.03378 | 26210 ft | 460 kts | 244° |
| 2026-04-25 12:11 | 24.83397 | 102.00200 | 26694 ft | 462 kts | 244° |
| 2026-04-25 12:11 | 24.81886 | 101.97066 | 27171 ft | 463 kts | 245° |
| 2026-04-25 12:11 | 24.80379 | 101.93945 | 27572 ft | 466 kts | 245° |
| 2026-04-25 12:12 | 24.78855 | 101.90789 | 28196 ft | 463 kts | 245° |
| 2026-04-25 12:12 | 24.77845 | 101.88686 | 28694 ft | 460 kts | 245° |
| 2026-04-25 12:12 | 24.75863 | 101.84585 | 29546 ft | 455 kts | 246° |
| 2026-04-25 12:12 | 24.74381 | 101.81512 | 30115 ft | 453 kts | 246° |
| 2026-04-25 12:13 | 24.72921 | 101.78474 | 30628 ft | 451 kts | 246° |
| 2026-04-25 12:13 | 24.71450 | 101.75413 | 31171 ft | 449 kts | 246° |
| 2026-04-25 12:13 | 24.69992 | 101.72381 | 31709 ft | 446 kts | 246° |
| 2026-04-25 12:13 | 24.68539 | 101.69362 | 32251 ft | 443 kts | 246° |
| 2026-04-25 12:14 | 24.67108 | 101.66393 | 32721 ft | 441 kts | 247° |
| 2026-04-25 12:14 | 24.65684 | 101.63444 | 33161 ft | 439 kts | 246° |
| 2026-04-25 12:14 | 24.64237 | 101.60452 | 33612 ft | 437 kts | 247° |
| 2026-04-25 12:14 | 24.62821 | 101.57524 | 34051 ft | 435 kts | 247° |
| 2026-04-25 12:15 | 24.59938 | 101.51601 | 34115 ft | 437 kts | 247° |
| 2026-04-25 12:15 | 24.57048 | 101.45739 | 34099 ft | 434 kts | 246° |
| 2026-04-25 12:16 | 24.54154 | 101.39884 | 34112 ft | 433 kts | 246° |
| 2026-04-25 12:16 | 24.51271 | 101.34057 | 34128 ft | 435 kts | 246° |
| 2026-04-25 12:17 | 24.48379 | 101.28213 | 34129 ft | 434 kts | 246° |
| 2026-04-25 12:17 | 24.45520 | 101.22446 | 34162 ft | 431 kts | 246° |
| 2026-04-25 12:18 | 24.42626 | 101.16605 | 34182 ft | 432 kts | 246° |
| 2026-04-25 12:18 | 24.39755 | 101.10820 | 34193 ft | 433 kts | 246° |
| 2026-04-25 12:19 | 24.35419 | 101.02097 | 34189 ft | 432 kts | 246° |
| 2026-04-25 12:20 | 24.32545 | 100.96324 | 34174 ft | 429 kts | 246° |
| 2026-04-25 12:20 | 24.29699 | 100.90614 | 34178 ft | 430 kts | 246° |
| 2026-04-25 12:21 | 24.26815 | 100.84836 | 34205 ft | 429 kts | 246° |
| 2026-04-25 12:21 | 24.23939 | 100.79076 | 34237 ft | 430 kts | 246° |
| 2026-04-25 12:22 | 24.21066 | 100.73330 | 34251 ft | 430 kts | 246° |
| 2026-04-25 12:22 | 24.18195 | 100.67600 | 34214 ft | 427 kts | 246° |
| 2026-04-25 12:23 | 24.15330 | 100.61887 | 34177 ft | 428 kts | 246° |
| 2026-04-25 12:23 | 24.12467 | 100.56189 | 34146 ft | 427 kts | 247° |
| 2026-04-25 12:24 | 24.09577 | 100.50490 | 34120 ft | 425 kts | 246° |
| 2026-04-25 12:24 | 24.06677 | 100.44838 | 34174 ft | 426 kts | 246° |
| 2026-04-25 12:25 | 24.03767 | 100.39178 | 34248 ft | 426 kts | 246° |
| 2026-04-25 12:25 | 24.00883 | 100.33579 | 34322 ft | 422 kts | 246° |
| 2026-04-25 12:26 | 23.97979 | 100.27940 | 34365 ft | 423 kts | 246° |
| 2026-04-25 12:26 | 23.95084 | 100.22322 | 34376 ft | 425 kts | 246° |
| 2026-04-25 12:27 | 23.92194 | 100.16711 | 34339 ft | 420 kts | 246° |
| 2026-04-25 12:27 | 23.89317 | 100.11134 | 34311 ft | 423 kts | 246° |
| 2026-04-25 12:28 | 23.86422 | 100.05521 | 34300 ft | 424 kts | 246° |
| 2026-04-25 12:28 | 23.83537 | 99.99940 | 34317 ft | 422 kts | 246° |
| 2026-04-25 12:29 | 23.80669 | 99.94400 | 34309 ft | 421 kts | 247° |
| 2026-04-25 12:29 | 23.77773 | 99.88800 | 34306 ft | 423 kts | 246° |
| 2026-04-25 12:30 | 23.74883 | 99.83231 | 34313 ft | 422 kts | 246° |
| 2026-04-25 12:30 | 23.71986 | 99.77652 | 34301 ft | 422 kts | 246° |
| 2026-04-25 12:31 | 23.69093 | 99.72089 | 34282 ft | 422 kts | 246° |
| 2026-04-25 12:31 | 23.66194 | 99.66518 | 34246 ft | 421 kts | 246° |
| 2026-04-25 12:32 | 23.63313 | 99.60992 | 34214 ft | 420 kts | 246° |
| 2026-04-25 12:32 | 23.60421 | 99.55443 | 34184 ft | 423 kts | 246° |
| 2026-04-25 12:33 | 23.57525 | 99.49886 | 34169 ft | 422 kts | 246° |
| 2026-04-25 12:33 | 23.54639 | 99.44366 | 34188 ft | 420 kts | 246° |
| 2026-04-25 12:34 | 23.52120 | 99.38608 | 34220 ft | 418 kts | 253° |
| 2026-04-25 12:34 | 23.50170 | 99.32676 | 34254 ft | 415 kts | 256° |
| 2026-04-25 12:35 | 23.48357 | 99.26720 | 34289 ft | 414 kts | 256° |
| 2026-04-25 12:35 | 23.46542 | 99.20765 | 34273 ft | 413 kts | 256° |
| 2026-04-25 12:36 | 23.44731 | 99.14899 | 34227 ft | 411 kts | 256° |
| 2026-04-25 12:36 | 23.42876 | 99.08945 | 34170 ft | 415 kts | 256° |
| 2026-04-25 12:37 | 23.41037 | 99.03059 | 34118 ft | 414 kts | 256° |
| 2026-04-25 12:37 | 23.39168 | 98.97088 | 34082 ft | 414 kts | 255° |
| 2026-04-25 12:38 | 23.37317 | 98.91190 | 34099 ft | 413 kts | 255° |
| 2026-04-25 12:38 | 23.35391 | 98.85325 | 34109 ft | 413 kts | 255° |
| 2026-04-25 12:39 | 23.33400 | 98.79431 | 34126 ft | 414 kts | 255° |
| 2026-04-25 12:39 | 23.31410 | 98.73552 | 34138 ft | 415 kts | 255° |
| 2026-04-25 12:40 | 23.29428 | 98.67687 | 34127 ft | 412 kts | 255° |
| 2026-04-25 12:40 | 23.27461 | 98.61859 | 34102 ft | 414 kts | 255° |
| 2026-04-25 12:41 | 23.25480 | 98.55987 | 34092 ft | 412 kts | 255° |
| 2026-04-25 12:41 | 23.23504 | 98.50125 | 34082 ft | 413 kts | 255° |
| 2026-04-25 12:42 | 23.21529 | 98.44273 | 34087 ft | 413 kts | 255° |
| 2026-04-25 12:42 | 23.19541 | 98.38399 | 34094 ft | 412 kts | 256° |
| 2026-04-25 12:43 | 23.17557 | 98.32542 | 34111 ft | 413 kts | 255° |
| 2026-04-25 12:43 | 23.14593 | 98.23820 | 34138 ft | 411 kts | 255° |
| 2026-04-25 12:44 | 23.12606 | 98.17963 | 34106 ft | 412 kts | 255° |
| 2026-04-25 12:45 | 23.09634 | 98.09232 | 34059 ft | 410 kts | 255° |
| 2026-04-25 12:45 | 23.06664 | 98.00518 | 34028 ft | 410 kts | 255° |
| 2026-04-25 12:46 | 23.04676 | 97.94707 | 34024 ft | 410 kts | 255° |
| 2026-04-25 12:46 | 23.02687 | 97.88908 | 34025 ft | 410 kts | 255° |
| 2026-04-25 12:47 | 23.00701 | 97.83131 | 34023 ft | 409 kts | 255° |
| 2026-04-25 12:47 | 22.98808 | 97.77305 | 34024 ft | 407 kts | 259° |
| 2026-04-25 12:48 | 22.97663 | 97.71351 | 34022 ft | 402 kts | 265° |
| 2026-04-25 12:48 | 22.96973 | 97.65327 | 34021 ft | 402 kts | 267° |
| 2026-04-25 12:49 | 22.96380 | 97.59333 | 34021 ft | 400 kts | 267° |
| 2026-04-25 12:49 | 22.95789 | 97.53347 | 34023 ft | 402 kts | 268° |
| 2026-04-25 12:50 | 22.95176 | 97.47310 | 34026 ft | 402 kts | 268° |
| 2026-04-25 12:50 | 22.94560 | 97.41303 | 34046 ft | 403 kts | 267° |
| 2026-04-25 12:51 | 22.93934 | 97.35268 | 34069 ft | 402 kts | 267° |
| 2026-04-25 12:51 | 22.93302 | 97.29202 | 34104 ft | 402 kts | 267° |
| 2026-04-25 12:52 | 22.92671 | 97.23177 | 34130 ft | 404 kts | 267° |
| 2026-04-25 12:52 | 22.92040 | 97.17170 | 34109 ft | 401 kts | 267° |
| 2026-04-25 12:53 | 22.91404 | 97.11140 | 34085 ft | 404 kts | 267° |
| 2026-04-25 12:53 | 22.90765 | 97.05106 | 34071 ft | 403 kts | 267° |
| 2026-04-25 12:54 | 22.90122 | 96.99088 | 34060 ft | 402 kts | 267° |
| 2026-04-25 12:54 | 22.89469 | 96.93024 | 34056 ft | 403 kts | 267° |
| 2026-04-25 12:55 | 22.88927 | 96.88002 | 34041 ft | 403 kts | 267° |
| 2026-04-25 12:55 | 22.88167 | 96.80992 | 34032 ft | 402 kts | 267° |
| 2026-04-25 12:56 | 22.87509 | 96.74983 | 34029 ft | 402 kts | 267° |
| 2026-04-25 12:56 | 22.86854 | 96.68979 | 34027 ft | 403 kts | 268° |
| 2026-04-25 12:57 | 22.86191 | 96.62936 | 34026 ft | 402 kts | 267° |
| 2026-04-25 12:57 | 22.85530 | 96.56933 | 34019 ft | 402 kts | 268° |
| 2026-04-25 12:58 | 22.84865 | 96.50918 | 34022 ft | 402 kts | 267° |
| 2026-04-25 12:58 | 22.84195 | 96.44884 | 34016 ft | 400 kts | 267° |
| 2026-04-25 12:59 | 22.83522 | 96.38861 | 33984 ft | 402 kts | 268° |
| 2026-04-25 12:59 | 22.82845 | 96.32809 | 33985 ft | 402 kts | 266° |
| 2026-04-25 13:00 | 22.82396 | 96.28793 | 33950 ft | 403 kts | 267° |
| 2026-04-25 13:00 | 22.81146 | 96.20818 | 33912 ft | 411 kts | 253° |
| 2026-04-25 13:01 | 22.79742 | 96.18094 | 33919 ft | 423 kts | 244° |
| 2026-04-25 13:01 | 22.77989 | 96.15469 | 33878 ft | 429 kts | 240° |
| 2026-04-25 13:01 | 22.74250 | 96.10438 | 33819 ft | 429 kts | 239° |
| 2026-04-25 13:02 | 22.70503 | 96.05413 | 33804 ft | 429 kts | 239° |
| 2026-04-25 13:02 | 22.66814 | 96.00306 | 33771 ft | 427 kts | 240° |
| 2026-04-25 13:03 | 22.63204 | 95.95209 | 33763 ft | 430 kts | 240° |
| 2026-04-25 13:03 | 22.59594 | 95.90076 | 33766 ft | 427 kts | 240° |
| 2026-04-25 13:04 | 22.55996 | 95.84946 | 33774 ft | 428 kts | 240° |
| 2026-04-25 13:04 | 22.52357 | 95.79757 | 33775 ft | 428 kts | 240° |
| 2026-04-25 13:05 | 22.48780 | 95.74664 | 33776 ft | 426 kts | 240° |
| 2026-04-25 13:05 | 22.45171 | 95.69521 | 33773 ft | 428 kts | 240° |
| 2026-04-25 13:06 | 22.41551 | 95.64372 | 33769 ft | 426 kts | 240° |
| 2026-04-25 13:06 | 22.37957 | 95.59269 | 33767 ft | 427 kts | 240° |
| 2026-04-25 13:07 | 22.34337 | 95.54140 | 33760 ft | 427 kts | 240° |
| 2026-04-25 13:07 | 22.30730 | 95.49029 | 33759 ft | 427 kts | 240° |
| 2026-04-25 13:08 | 22.27128 | 95.43929 | 33760 ft | 427 kts | 240° |
| 2026-04-25 13:08 | 22.23498 | 95.38797 | 33759 ft | 426 kts | 239° |
| 2026-04-25 13:09 | 22.19896 | 95.33705 | 33757 ft | 429 kts | 239° |
| 2026-04-25 13:09 | 22.16278 | 95.28593 | 33755 ft | 428 kts | 239° |
| 2026-04-25 13:10 | 22.12636 | 95.23459 | 33752 ft | 429 kts | 240° |
| 2026-04-25 13:10 | 22.09024 | 95.18368 | 33753 ft | 428 kts | 239° |
| 2026-04-25 13:11 | 22.05410 | 95.13281 | 33748 ft | 429 kts | 239° |
| 2026-04-25 13:11 | 22.01776 | 95.08170 | 33752 ft | 427 kts | 239° |
| 2026-04-25 13:12 | 21.98156 | 95.03082 | 33767 ft | 427 kts | 239° |
| 2026-04-25 13:12 | 21.95120 | 94.98818 | 33772 ft | 430 kts | 239° |
| 2026-04-25 13:13 | 21.90887 | 94.92879 | 33778 ft | 428 kts | 239° |
| 2026-04-25 13:13 | 21.87230 | 94.87756 | 33789 ft | 431 kts | 239° |
| 2026-04-25 13:14 | 21.83591 | 94.82667 | 33804 ft | 429 kts | 239° |
| 2026-04-25 13:14 | 21.79940 | 94.77567 | 33800 ft | 430 kts | 239° |
| 2026-04-25 13:15 | 21.76306 | 94.72485 | 33812 ft | 429 kts | 239° |
| 2026-04-25 13:15 | 21.72666 | 94.67404 | 33829 ft | 428 kts | 239° |
| 2026-04-25 13:16 | 21.69004 | 94.62289 | 33834 ft | 430 kts | 239° |
| 2026-04-25 13:16 | 21.65358 | 94.57208 | 33840 ft | 430 kts | 239° |
| 2026-04-25 13:17 | 21.61691 | 94.52107 | 33834 ft | 431 kts | 239° |
| 2026-04-25 13:17 | 21.58015 | 94.46999 | 33852 ft | 432 kts | 239° |
| 2026-04-25 13:18 | 21.54345 | 94.41906 | 33872 ft | 431 kts | 239° |
| 2026-04-25 13:18 | 21.50677 | 94.36820 | 33863 ft | 430 kts | 239° |
| 2026-04-25 13:19 | 21.47014 | 94.31730 | 33894 ft | 430 kts | 238° |
| 2026-04-25 13:19 | 21.43940 | 94.27466 | 33915 ft | 429 kts | 238° |
| 2026-04-25 13:20 | 21.39661 | 94.21537 | 33917 ft | 430 kts | 238° |
| 2026-04-25 13:20 | 21.35979 | 94.16441 | 33961 ft | 432 kts | 239° |
| 2026-04-25 13:21 | 21.32298 | 94.11356 | 34002 ft | 431 kts | 238° |
| 2026-04-25 13:21 | 21.28632 | 94.06293 | 34049 ft | 430 kts | 238° |
| 2026-04-25 13:22 | 21.24936 | 94.01193 | 34113 ft | 432 kts | 238° |
| 2026-04-25 13:23 | 21.19416 | 93.93586 | 34142 ft | 430 kts | 238° |
| 2026-04-25 13:23 | 21.15747 | 93.88539 | 34127 ft | 430 kts | 238° |
| 2026-04-25 13:24 | 21.12049 | 93.83459 | 34101 ft | 431 kts | 238° |
| 2026-04-25 13:24 | 21.08370 | 93.78415 | 34068 ft | 430 kts | 238° |
| 2026-04-25 13:25 | 21.04663 | 93.73328 | 34056 ft | 433 kts | 238° |
| 2026-04-25 13:25 | 21.00964 | 93.68259 | 34022 ft | 432 kts | 238° |
| 2026-04-25 13:26 | 20.97263 | 93.63189 | 34002 ft | 433 kts | 238° |
| 2026-04-25 13:26 | 20.93529 | 93.58082 | 33994 ft | 433 kts | 238° |
| 2026-04-25 13:27 | 20.89818 | 93.53005 | 33966 ft | 432 kts | 238° |
| 2026-04-25 13:27 | 20.86143 | 93.47984 | 33938 ft | 433 kts | 238° |
| 2026-04-25 13:28 | 20.82426 | 93.42907 | 33925 ft | 433 kts | 238° |
| 2026-04-25 13:28 | 20.78689 | 93.37817 | 33915 ft | 432 kts | 238° |
| 2026-04-25 13:29 | 20.74957 | 93.32733 | 33882 ft | 432 kts | 238° |
| 2026-04-25 13:29 | 20.71224 | 93.27651 | 33867 ft | 434 kts | 238° |
| 2026-04-25 13:30 | 20.65573 | 93.19968 | 33856 ft | 433 kts | 238° |
| 2026-04-25 13:31 | 20.59938 | 93.12308 | 33850 ft | 433 kts | 238° |
| 2026-04-25 13:31 | 20.56199 | 93.07232 | 33844 ft | 434 kts | 238° |
| 2026-04-25 13:32 | 20.52439 | 93.02145 | 33849 ft | 434 kts | 237° |
| 2026-04-25 13:32 | 20.48675 | 92.97056 | 33846 ft | 435 kts | 238° |
| 2026-04-25 13:33 | 20.44939 | 92.92001 | 33850 ft | 434 kts | 237° |
| 2026-04-25 13:33 | 20.41208 | 92.86958 | 33855 ft | 434 kts | 237° |
| 2026-04-25 13:34 | 20.37455 | 92.81885 | 33857 ft | 436 kts | 237° |
| 2026-04-25 13:34 | 20.33681 | 92.76789 | 33856 ft | 435 kts | 238° |
| 2026-04-25 13:35 | 20.29927 | 92.71727 | 33855 ft | 436 kts | 237° |
| 2026-04-25 13:35 | 20.26138 | 92.66625 | 33858 ft | 437 kts | 237° |
| 2026-04-25 13:36 | 20.22372 | 92.61562 | 33860 ft | 435 kts | 237° |
| 2026-04-25 13:36 | 20.18582 | 92.56474 | 33860 ft | 434 kts | 237° |
| 2026-04-25 13:37 | 20.14812 | 92.51410 | 33858 ft | 436 kts | 237° |
| 2026-04-25 13:37 | 20.11058 | 92.46369 | 33853 ft | 436 kts | 237° |
| 2026-04-25 13:38 | 20.07277 | 92.41296 | 33854 ft | 437 kts | 237° |
| 2026-04-25 13:38 | 20.03498 | 92.36234 | 33851 ft | 438 kts | 237° |
| 2026-04-25 13:39 | 19.99709 | 92.31163 | 33851 ft | 437 kts | 237° |
| 2026-04-25 13:39 | 19.95898 | 92.26067 | 33849 ft | 439 kts | 237° |
| 2026-04-25 13:40 | 19.92105 | 92.21000 | 33848 ft | 437 kts | 236° |
| 2026-04-25 13:40 | 19.88298 | 92.15919 | 33845 ft | 438 kts | 236° |
| 2026-04-25 13:41 | 19.84495 | 92.10848 | 33843 ft | 439 kts | 236° |
| 2026-04-25 13:41 | 19.80669 | 92.05748 | 33843 ft | 440 kts | 236° |
| 2026-04-25 13:42 | 19.76878 | 92.00696 | 33843 ft | 438 kts | 236° |
| 2026-04-25 13:42 | 19.73070 | 91.95625 | 33844 ft | 439 kts | 236° |
| 2026-04-25 13:43 | 19.69261 | 91.90561 | 33845 ft | 438 kts | 236° |
| 2026-04-25 13:43 | 19.65462 | 91.85513 | 33851 ft | 438 kts | 236° |
| 2026-04-25 13:44 | 19.61639 | 91.80444 | 33848 ft | 436 kts | 236° |
| 2026-04-25 13:44 | 19.57831 | 91.75394 | 33849 ft | 438 kts | 236° |
| 2026-04-25 13:45 | 19.54021 | 91.70346 | 33853 ft | 438 kts | 236° |
| 2026-04-25 13:45 | 19.50215 | 91.65304 | 33852 ft | 438 kts | 236° |
| 2026-04-25 13:46 | 19.46395 | 91.60250 | 33854 ft | 438 kts | 236° |
| 2026-04-25 13:46 | 19.42555 | 91.55178 | 33860 ft | 439 kts | 236° |
| 2026-04-25 13:47 | 19.38754 | 91.50157 | 33860 ft | 438 kts | 236° |
| 2026-04-25 13:47 | 19.34923 | 91.45100 | 33858 ft | 438 kts | 235° |
| 2026-04-25 13:48 | 19.31104 | 91.40064 | 33860 ft | 438 kts | 235° |
| 2026-04-25 13:48 | 19.27260 | 91.35001 | 33860 ft | 439 kts | 236° |
| 2026-04-25 13:49 | 19.23432 | 91.29962 | 33859 ft | 438 kts | 235° |
| 2026-04-25 13:49 | 19.19589 | 91.24908 | 33858 ft | 438 kts | 235° |
| 2026-04-25 13:50 | 19.15752 | 91.19871 | 33851 ft | 438 kts | 235° |
| 2026-04-25 13:50 | 19.11904 | 91.14818 | 33843 ft | 439 kts | 235° |
| 2026-04-25 13:51 | 19.08072 | 91.09790 | 33843 ft | 438 kts | 234° |
| 2026-04-25 13:51 | 19.04210 | 91.04726 | 33843 ft | 439 kts | 235° |
| 2026-04-25 13:52 | 19.00354 | 90.99677 | 33844 ft | 439 kts | 234° |
| 2026-04-25 13:52 | 18.96492 | 90.94618 | 33843 ft | 440 kts | 234° |
| 2026-04-25 13:53 | 18.92635 | 90.89574 | 33843 ft | 439 kts | 234° |
| 2026-04-25 13:53 | 18.88782 | 90.84541 | 33843 ft | 440 kts | 234° |
| 2026-04-25 13:54 | 18.84907 | 90.79485 | 33844 ft | 439 kts | 234° |
| 2026-04-25 13:54 | 18.81057 | 90.74463 | 33845 ft | 439 kts | 234° |
| 2026-04-25 13:55 | 18.77172 | 90.69402 | 33847 ft | 439 kts | 234° |
| 2026-04-25 13:55 | 18.73311 | 90.64376 | 33848 ft | 439 kts | 234° |
| 2026-04-25 13:56 | 18.69465 | 90.59372 | 33848 ft | 439 kts | 234° |
| 2026-04-25 13:56 | 18.65597 | 90.54345 | 33850 ft | 439 kts | 234° |
| 2026-04-25 13:57 | 18.61740 | 90.49334 | 33859 ft | 440 kts | 234° |
| 2026-04-25 13:57 | 18.57871 | 90.44315 | 33863 ft | 440 kts | 234° |
| 2026-04-25 13:58 | 18.53998 | 90.39296 | 33861 ft | 440 kts | 234° |
| 2026-04-25 13:58 | 18.50140 | 90.34293 | 33864 ft | 441 kts | 233° |
| 2026-04-25 13:59 | 18.46256 | 90.29260 | 33864 ft | 440 kts | 233° |
| 2026-04-25 13:59 | 18.42391 | 90.24261 | 33864 ft | 441 kts | 233° |
| 2026-04-25 14:00 | 18.38502 | 90.19237 | 33864 ft | 440 kts | 233° |
| 2026-04-25 14:00 | 18.34622 | 90.14230 | 33862 ft | 441 kts | 233° |
| 2026-04-25 14:01 | 18.30735 | 90.09209 | 33863 ft | 441 kts | 233° |
| 2026-04-25 14:01 | 18.26841 | 90.04182 | 33864 ft | 442 kts | 233° |
| 2026-04-25 14:02 | 18.22967 | 89.99187 | 33864 ft | 441 kts | 233° |
| 2026-04-25 14:02 | 18.19063 | 89.94162 | 33864 ft | 442 kts | 233° |
| 2026-04-25 14:03 | 18.15144 | 89.89122 | 33864 ft | 442 kts | 233° |
| 2026-04-25 14:03 | 18.11258 | 89.84128 | 33863 ft | 442 kts | 233° |
| 2026-04-25 14:04 | 18.07342 | 89.79096 | 33862 ft | 442 kts | 233° |
| 2026-04-25 14:04 | 18.03433 | 89.74077 | 33862 ft | 443 kts | 233° |
| 2026-04-25 14:05 | 17.99506 | 89.69039 | 33863 ft | 443 kts | 233° |
| 2026-04-25 14:05 | 17.95612 | 89.64050 | 33864 ft | 442 kts | 233° |
| 2026-04-25 14:06 | 17.91683 | 89.59016 | 33864 ft | 444 kts | 233° |
| 2026-04-25 14:06 | 17.87779 | 89.54019 | 33867 ft | 442 kts | 233° |
| 2026-04-25 14:07 | 17.83856 | 89.49007 | 33874 ft | 444 kts | 233° |
| 2026-04-25 14:07 | 17.79917 | 89.43977 | 33875 ft | 443 kts | 233° |
| 2026-04-25 14:08 | 17.76001 | 89.38979 | 33878 ft | 444 kts | 233° |
| 2026-04-25 14:08 | 17.72053 | 89.33943 | 33875 ft | 443 kts | 232° |
| 2026-04-25 14:09 | 17.68116 | 89.28922 | 33875 ft | 444 kts | 232° |
| 2026-04-25 14:09 | 17.64191 | 89.23920 | 33872 ft | 444 kts | 232° |
| 2026-04-25 14:10 | 17.60256 | 89.18906 | 33871 ft | 444 kts | 232° |
| 2026-04-25 14:10 | 17.56318 | 89.13893 | 33873 ft | 445 kts | 232° |
| 2026-04-25 14:11 | 17.52356 | 89.08858 | 33872 ft | 444 kts | 232° |
| 2026-04-25 14:11 | 17.48422 | 89.03861 | 33875 ft | 444 kts | 232° |
| 2026-04-25 14:12 | 17.44477 | 88.98856 | 33875 ft | 446 kts | 232° |
| 2026-04-25 14:12 | 17.40519 | 88.93839 | 33872 ft | 445 kts | 232° |
| 2026-04-25 14:13 | 17.36540 | 88.88799 | 33866 ft | 445 kts | 232° |
| 2026-04-25 14:13 | 17.32580 | 88.83785 | 33864 ft | 446 kts | 232° |
| 2026-04-25 14:14 | 17.28603 | 88.78753 | 33863 ft | 446 kts | 232° |
| 2026-04-25 14:14 | 17.24629 | 88.73727 | 33863 ft | 445 kts | 232° |
| 2026-04-25 14:15 | 17.20673 | 88.68734 | 33863 ft | 447 kts | 232° |
| 2026-04-25 14:15 | 17.16699 | 88.63715 | 33862 ft | 446 kts | 232° |
| 2026-04-25 14:16 | 17.12754 | 88.58736 | 33863 ft | 446 kts | 232° |
| 2026-04-25 14:16 | 17.08759 | 88.53701 | 33863 ft | 447 kts | 232° |
| 2026-04-25 14:17 | 17.04784 | 88.48697 | 33864 ft | 445 kts | 232° |
| 2026-04-25 14:17 | 17.00817 | 88.43705 | 33864 ft | 445 kts | 232° |
| 2026-04-25 14:18 | 16.96856 | 88.38727 | 33861 ft | 446 kts | 232° |
| 2026-04-25 14:18 | 16.92878 | 88.33730 | 33865 ft | 446 kts | 231° |
| 2026-04-25 14:19 | 16.88905 | 88.28737 | 33866 ft | 448 kts | 231° |
| 2026-04-25 14:19 | 16.84902 | 88.23712 | 33871 ft | 447 kts | 231° |
| 2026-04-25 14:20 | 16.80923 | 88.18725 | 33880 ft | 447 kts | 231° |
| 2026-04-25 14:20 | 16.76938 | 88.13731 | 33883 ft | 447 kts | 231° |
| 2026-04-25 14:21 | 16.72931 | 88.08712 | 33882 ft | 446 kts | 231° |
| 2026-04-25 14:21 | 16.68962 | 88.03742 | 33886 ft | 447 kts | 231° |
| 2026-04-25 14:22 | 16.64985 | 87.98767 | 33884 ft | 446 kts | 231° |
| 2026-04-25 14:22 | 16.60973 | 87.93752 | 33884 ft | 447 kts | 231° |
| 2026-04-25 14:23 | 16.56994 | 87.88786 | 33887 ft | 447 kts | 231° |
| 2026-04-25 14:23 | 16.53011 | 87.83818 | 33885 ft | 448 kts | 231° |
| 2026-04-25 14:24 | 16.48989 | 87.78804 | 33884 ft | 448 kts | 231° |
| 2026-04-25 14:24 | 16.44969 | 87.73800 | 33882 ft | 448 kts | 231° |
| 2026-04-25 14:25 | 16.40962 | 87.68811 | 33879 ft | 449 kts | 231° |
| 2026-04-25 14:25 | 16.36951 | 87.63819 | 33876 ft | 449 kts | 231° |
| 2026-04-25 14:26 | 16.32909 | 87.58792 | 33877 ft | 449 kts | 231° |
| 2026-04-25 14:26 | 16.28900 | 87.53810 | 33879 ft | 449 kts | 231° |
| 2026-04-25 14:27 | 16.24868 | 87.48801 | 33881 ft | 450 kts | 231° |
| 2026-04-25 14:27 | 16.20866 | 87.43832 | 33882 ft | 450 kts | 231° |
| 2026-04-25 14:28 | 16.16833 | 87.38831 | 33880 ft | 450 kts | 231° |
| 2026-04-25 14:28 | 16.12792 | 87.33827 | 33880 ft | 451 kts | 231° |
| 2026-04-25 14:29 | 16.08728 | 87.28796 | 33881 ft | 451 kts | 231° |
| 2026-04-25 14:29 | 16.04650 | 87.23750 | 33881 ft | 452 kts | 231° |
| 2026-04-25 14:30 | 16.00599 | 87.18745 | 33884 ft | 452 kts | 231° |
| 2026-04-25 14:30 | 15.94498 | 87.11208 | 33885 ft | 452 kts | 231° |
| 2026-04-25 14:31 | 15.90434 | 87.06190 | 33885 ft | 452 kts | 231° |
| 2026-04-25 14:31 | 15.86382 | 87.01190 | 33884 ft | 452 kts | 231° |
| 2026-04-25 14:32 | 15.82298 | 86.96154 | 33882 ft | 451 kts | 231° |
| 2026-04-25 14:32 | 15.78239 | 86.91156 | 33875 ft | 451 kts | 231° |
| 2026-04-25 14:33 | 15.74173 | 86.86151 | 33871 ft | 451 kts | 231° |
| 2026-04-25 14:33 | 15.70137 | 86.81184 | 33880 ft | 452 kts | 231° |
| 2026-04-25 14:34 | 15.66079 | 86.76196 | 33889 ft | 452 kts | 231° |
| 2026-04-25 14:34 | 15.61998 | 86.71188 | 33888 ft | 451 kts | 231° |
| 2026-04-25 14:35 | 15.57936 | 86.66202 | 33887 ft | 451 kts | 231° |
| 2026-04-25 14:35 | 15.53875 | 86.61220 | 33887 ft | 451 kts | 231° |
| 2026-04-25 14:36 | 15.49808 | 86.56234 | 33884 ft | 451 kts | 231° |
| 2026-04-25 14:36 | 15.45726 | 86.51231 | 33884 ft | 450 kts | 230° |
| 2026-04-25 14:37 | 15.41635 | 86.46220 | 33882 ft | 451 kts | 231° |
| 2026-04-25 14:37 | 15.37551 | 86.41224 | 33883 ft | 451 kts | 230° |
| 2026-04-25 14:38 | 15.33498 | 86.36268 | 33883 ft | 451 kts | 230° |
| 2026-04-25 14:38 | 15.29403 | 86.31264 | 33883 ft | 452 kts | 230° |
| 2026-04-25 14:39 | 15.25323 | 86.26284 | 33883 ft | 451 kts | 230° |
| 2026-04-25 14:39 | 15.21222 | 86.21283 | 33884 ft | 452 kts | 230° |
| 2026-04-25 14:40 | 15.17135 | 86.16302 | 33884 ft | 452 kts | 230° |
| 2026-04-25 14:40 | 15.13030 | 86.11301 | 33884 ft | 452 kts | 230° |
| 2026-04-25 14:41 | 15.08940 | 86.06323 | 33884 ft | 452 kts | 230° |
| 2026-04-25 14:41 | 15.04856 | 86.01354 | 33883 ft | 451 kts | 230° |
| 2026-04-25 14:42 | 15.01442 | 85.97202 | 33884 ft | 452 kts | 230° |
| 2026-04-25 14:42 | 14.96687 | 85.91425 | 33884 ft | 452 kts | 230° |
| 2026-04-25 14:43 | 14.92614 | 85.86479 | 33884 ft | 452 kts | 230° |
| 2026-04-25 14:43 | 14.88491 | 85.81476 | 33884 ft | 453 kts | 230° |
| 2026-04-25 14:44 | 14.84390 | 85.76501 | 33884 ft | 452 kts | 230° |
| 2026-04-25 14:44 | 14.80302 | 85.71545 | 33884 ft | 453 kts | 230° |
| 2026-04-25 14:45 | 14.76193 | 85.66566 | 33884 ft | 454 kts | 230° |
| 2026-04-25 14:45 | 14.72105 | 85.61614 | 33884 ft | 453 kts | 230° |
| 2026-04-25 14:46 | 14.67993 | 85.56638 | 33884 ft | 453 kts | 230° |
| 2026-04-25 14:46 | 14.63867 | 85.51650 | 33884 ft | 455 kts | 230° |
| 2026-04-25 14:47 | 14.60421 | 85.47486 | 33884 ft | 455 kts | 230° |
| 2026-04-25 14:47 | 14.55609 | 85.41678 | 33885 ft | 455 kts | 230° |
| 2026-04-25 14:48 | 14.51488 | 85.36707 | 33887 ft | 455 kts | 230° |
| 2026-04-25 14:48 | 14.47366 | 85.31735 | 33894 ft | 455 kts | 230° |
| 2026-04-25 14:49 | 14.43224 | 85.26743 | 33898 ft | 457 kts | 230° |
| 2026-04-25 14:49 | 14.39064 | 85.21732 | 33898 ft | 457 kts | 230° |
| 2026-04-25 14:50 | 14.34935 | 85.16762 | 33898 ft | 457 kts | 230° |
| 2026-04-25 14:50 | 14.30770 | 85.11752 | 33900 ft | 458 kts | 230° |
| 2026-04-25 14:51 | 14.26609 | 85.06750 | 33899 ft | 458 kts | 230° |
| 2026-04-25 14:51 | 14.22457 | 85.01762 | 33901 ft | 458 kts | 230° |
| 2026-04-25 14:52 | 14.18302 | 84.96775 | 33896 ft | 458 kts | 230° |
| 2026-04-25 14:52 | 14.14821 | 84.92596 | 33891 ft | 459 kts | 230° |
| 2026-04-25 14:53 | 14.09943 | 84.86746 | 33884 ft | 459 kts | 230° |
| 2026-04-25 14:53 | 14.05801 | 84.81782 | 33884 ft | 459 kts | 230° |
| 2026-04-25 14:54 | 14.01614 | 84.76765 | 33885 ft | 459 kts | 230° |
| 2026-04-25 14:54 | 13.97426 | 84.71753 | 33887 ft | 459 kts | 230° |
| 2026-04-25 14:55 | 13.93256 | 84.66764 | 33882 ft | 458 kts | 230° |
| 2026-04-25 14:55 | 13.89107 | 84.61804 | 33884 ft | 459 kts | 230° |
| 2026-04-25 14:56 | 13.84943 | 84.56829 | 33883 ft | 458 kts | 230° |
| 2026-04-25 14:56 | 13.80765 | 84.51841 | 33884 ft | 460 kts | 230° |
| 2026-04-25 14:57 | 13.76594 | 84.46864 | 33885 ft | 458 kts | 230° |
| 2026-04-25 14:57 | 13.72428 | 84.41898 | 33883 ft | 459 kts | 230° |
| 2026-04-25 14:58 | 13.68244 | 84.36911 | 33883 ft | 460 kts | 229° |
| 2026-04-25 14:58 | 13.64024 | 84.31878 | 33882 ft | 460 kts | 229° |
| 2026-04-25 14:59 | 13.59785 | 84.26827 | 33885 ft | 459 kts | 229° |
| 2026-04-25 14:59 | 13.55592 | 84.21838 | 33884 ft | 459 kts | 229° |
| 2026-04-25 15:00 | 13.51412 | 84.16866 | 33883 ft | 459 kts | 229° |
| 2026-04-25 15:00 | 13.47209 | 84.11872 | 33883 ft | 461 kts | 229° |
| 2026-04-25 15:01 | 13.42984 | 84.06852 | 33883 ft | 461 kts | 229° |
| 2026-04-25 15:01 | 13.38769 | 84.01848 | 33883 ft | 462 kts | 229° |
| 2026-04-25 15:02 | 13.34483 | 83.96765 | 33887 ft | 461 kts | 229° |
| 2026-04-25 15:02 | 13.30254 | 83.91752 | 33897 ft | 461 kts | 229° |
| 2026-04-25 15:03 | 13.26016 | 83.86731 | 33905 ft | 460 kts | 229° |
| 2026-04-25 15:03 | 13.21760 | 83.81690 | 33905 ft | 461 kts | 229° |
| 2026-04-25 15:04 | 13.17521 | 83.76671 | 33904 ft | 460 kts | 229° |
| 2026-04-25 15:04 | 13.13290 | 83.71664 | 33905 ft | 461 kts | 229° |
| 2026-04-25 15:05 | 13.09041 | 83.66640 | 33904 ft | 462 kts | 229° |
| 2026-04-25 15:06 | 13.02658 | 83.59097 | 33904 ft | 461 kts | 229° |
| 2026-04-25 15:06 | 12.98370 | 83.54034 | 33906 ft | 462 kts | 229° |
| 2026-04-25 15:07 | 12.94139 | 83.49048 | 33904 ft | 462 kts | 229° |
| 2026-04-25 15:07 | 12.89864 | 83.44010 | 33895 ft | 462 kts | 229° |
| 2026-04-25 15:08 | 12.85618 | 83.39003 | 33884 ft | 463 kts | 229° |
| 2026-04-25 15:08 | 12.81373 | 83.34000 | 33884 ft | 463 kts | 228° |
| 2026-04-25 15:09 | 12.77124 | 83.28996 | 33887 ft | 463 kts | 228° |
| 2026-04-25 15:09 | 12.70754 | 83.21502 | 33886 ft | 462 kts | 228° |
| 2026-04-25 15:10 | 12.66514 | 83.16515 | 33884 ft | 463 kts | 228° |
| 2026-04-25 15:11 | 12.60148 | 83.09033 | 33886 ft | 464 kts | 228° |
| 2026-04-25 15:11 | 12.55907 | 83.04053 | 33885 ft | 462 kts | 228° |
| 2026-04-25 15:12 | 12.49565 | 82.96613 | 33882 ft | 462 kts | 228° |
| 2026-04-25 15:12 | 12.46741 | 82.93304 | 33885 ft | 462 kts | 228° |
| 2026-04-25 15:13 | 12.38954 | 82.84183 | 33884 ft | 463 kts | 228° |
| 2026-04-25 15:14 | 12.34700 | 82.79202 | 33882 ft | 463 kts | 228° |
| 2026-04-25 15:14 | 12.30445 | 82.74225 | 33884 ft | 464 kts | 228° |
| 2026-04-25 15:15 | 12.26190 | 82.69250 | 33883 ft | 464 kts | 228° |
| 2026-04-25 15:15 | 12.21946 | 82.64286 | 33884 ft | 463 kts | 228° |
| 2026-04-25 15:16 | 12.17660 | 82.59277 | 33885 ft | 463 kts | 228° |
| 2026-04-25 15:16 | 12.11265 | 82.51808 | 33890 ft | 464 kts | 228° |
| 2026-04-25 15:17 | 12.04887 | 82.44369 | 33896 ft | 464 kts | 228° |
| 2026-04-25 15:18 | 12.00613 | 82.39389 | 33889 ft | 464 kts | 228° |
| 2026-04-25 15:18 | 11.94212 | 82.31935 | 33875 ft | 464 kts | 228° |
| 2026-04-25 15:19 | 11.91361 | 82.28615 | 33868 ft | 465 kts | 228° |
| 2026-04-25 15:19 | 11.85662 | 82.21983 | 33865 ft | 465 kts | 228° |
| 2026-04-25 15:20 | 11.81389 | 82.17013 | 33872 ft | 465 kts | 228° |
| 2026-04-25 15:20 | 11.77070 | 82.11993 | 33879 ft | 466 kts | 228° |
| 2026-04-25 15:21 | 11.72801 | 82.07034 | 33882 ft | 466 kts | 228° |
| 2026-04-25 15:21 | 11.68496 | 82.02033 | 33883 ft | 467 kts | 228° |
| 2026-04-25 15:22 | 11.64201 | 81.97050 | 33884 ft | 466 kts | 228° |
| 2026-04-25 15:22 | 11.59907 | 81.92068 | 33883 ft | 466 kts | 228° |
| 2026-04-25 15:23 | 11.55601 | 81.87075 | 33883 ft | 467 kts | 228° |
| 2026-04-25 15:23 | 11.51316 | 81.82112 | 33883 ft | 467 kts | 228° |
| 2026-04-25 15:24 | 11.47003 | 81.77115 | 33880 ft | 467 kts | 227° |
| 2026-04-25 15:24 | 11.43427 | 81.72974 | 33880 ft | 466 kts | 228° |
| 2026-04-25 15:25 | 11.38390 | 81.67149 | 33879 ft | 466 kts | 228° |
| 2026-04-25 15:25 | 11.34097 | 81.62186 | 33879 ft | 466 kts | 228° |
| 2026-04-25 15:26 | 11.29767 | 81.57182 | 33878 ft | 466 kts | 227° |
| 2026-04-25 15:26 | 11.25442 | 81.52187 | 33878 ft | 467 kts | 227° |
| 2026-04-25 15:27 | 11.21116 | 81.47189 | 33884 ft | 467 kts | 227° |
| 2026-04-25 15:28 | 11.14621 | 81.39693 | 33883 ft | 468 kts | 227° |
| 2026-04-25 15:28 | 11.10294 | 81.34701 | 33883 ft | 466 kts | 227° |
| 2026-04-25 15:29 | 11.05977 | 81.29725 | 33883 ft | 466 kts | 227° |
| 2026-04-25 15:29 | 11.01699 | 81.24798 | 33886 ft | 467 kts | 227° |
| 2026-04-25 15:30 | 10.97370 | 81.19813 | 33886 ft | 468 kts | 227° |
| 2026-04-25 15:30 | 10.93037 | 81.14834 | 33884 ft | 467 kts | 226° |
| 2026-04-25 15:31 | 10.88707 | 81.09905 | 33885 ft | 468 kts | 227° |
| 2026-04-25 15:31 | 10.84366 | 81.04958 | 33886 ft | 467 kts | 226° |
| 2026-04-25 15:32 | 10.80030 | 80.99995 | 33883 ft | 467 kts | 227° |
| 2026-04-25 15:32 | 10.75711 | 80.95040 | 33883 ft | 466 kts | 226° |
| 2026-04-25 15:33 | 10.69250 | 80.87624 | 33878 ft | 466 kts | 226° |
| 2026-04-25 15:33 | 10.64976 | 80.82719 | 33868 ft | 465 kts | 226° |
| 2026-04-25 15:34 | 10.60659 | 80.77766 | 33867 ft | 466 kts | 226° |
| 2026-04-25 15:34 | 10.57032 | 80.73608 | 33866 ft | 468 kts | 227° |
| 2026-04-25 15:35 | 10.49811 | 80.65329 | 33863 ft | 466 kts | 227° |
| 2026-04-25 15:36 | 10.43270 | 80.57839 | 33862 ft | 465 kts | 226° |
| 2026-04-25 15:36 | 10.38967 | 80.52916 | 33862 ft | 465 kts | 226° |
| 2026-04-25 15:37 | 10.34599 | 80.47922 | 33861 ft | 465 kts | 226° |
| 2026-04-25 15:37 | 10.30273 | 80.42976 | 33864 ft | 465 kts | 226° |
| 2026-04-25 15:38 | 10.25902 | 80.37978 | 33862 ft | 465 kts | 226° |
| 2026-04-25 15:38 | 10.21605 | 80.33069 | 33481 ft | 458 kts | 226° |
| 2026-04-25 15:39 | 10.19508 | 80.30677 | 32933 ft | 452 kts | 226° |
| 2026-04-25 15:39 | 10.17419 | 80.28297 | 32287 ft | 448 kts | 226° |
| 2026-04-25 15:39 | 10.15325 | 80.25911 | 31553 ft | 448 kts | 226° |
| 2026-04-25 15:39 | 10.13255 | 80.23550 | 30744 ft | 450 kts | 226° |
| 2026-04-25 15:40 | 10.11169 | 80.21168 | 29850 ft | 453 kts | 226° |
| 2026-04-25 15:40 | 10.10468 | 80.20367 | 29557 ft | 454 kts | 226° |
| 2026-04-25 15:40 | 10.06916 | 80.16312 | 27986 ft | 459 kts | 225° |
| 2026-04-25 15:40 | 10.04605 | 80.13971 | 26979 ft | 462 kts | 219° |
| 2026-04-25 15:41 | 10.01987 | 80.12045 | 25907 ft | 465 kts | 209° |
| 2026-04-25 15:41 | 9.99002 | 80.10559 | 25062 ft | 463 kts | 200° |
| 2026-04-25 15:41 | 9.95917 | 80.09470 | 24866 ft | 465 kts | 196° |
| 2026-04-25 15:41 | 9.92772 | 80.08525 | 24862 ft | 474 kts | 193° |
| 2026-04-25 15:42 | 9.89450 | 80.07857 | 24863 ft | 480 kts | 186° |
| 2026-04-25 15:42 | 9.86070 | 80.07559 | 24863 ft | 479 kts | 181° |
| 2026-04-25 15:42 | 9.82662 | 80.07472 | 24863 ft | 479 kts | 179° |
| 2026-04-25 15:42 | 9.79294 | 80.07481 | 24864 ft | 479 kts | 178° |
| 2026-04-25 15:43 | 9.75956 | 80.07519 | 24865 ft | 479 kts | 178° |
| 2026-04-25 15:43 | 9.72602 | 80.07558 | 24864 ft | 478 kts | 178° |
| 2026-04-25 15:43 | 9.69219 | 80.07577 | 24864 ft | 478 kts | 179° |
| 2026-04-25 15:43 | 9.65769 | 80.07578 | 24864 ft | 477 kts | 179° |
| 2026-04-25 15:44 | 9.62380 | 80.07561 | 24865 ft | 478 kts | 179° |
| 2026-04-25 15:44 | 9.59055 | 80.07523 | 24864 ft | 477 kts | 179° |
| 2026-04-25 15:44 | 9.55641 | 80.07471 | 24865 ft | 477 kts | 179° |
| 2026-04-25 15:44 | 9.52303 | 80.07412 | 24864 ft | 478 kts | 180° |
| 2026-04-25 15:45 | 9.48896 | 80.07347 | 24867 ft | 479 kts | 180° |
| 2026-04-25 15:45 | 9.45481 | 80.07277 | 24865 ft | 479 kts | 180° |
| 2026-04-25 15:45 | 9.42104 | 80.07207 | 24865 ft | 480 kts | 180° |
| 2026-04-25 15:45 | 9.40936 | 80.07182 | 24865 ft | 480 kts | 180° |
| 2026-04-25 15:46 | 9.35316 | 80.07069 | 24866 ft | 479 kts | 180° |
| 2026-04-25 15:46 | 9.31938 | 80.07004 | 24864 ft | 479 kts | 180° |
| 2026-04-25 15:46 | 9.28624 | 80.06942 | 24864 ft | 480 kts | 180° |
| 2026-04-25 15:46 | 9.25231 | 80.06878 | 24865 ft | 480 kts | 180° |
| 2026-04-25 15:47 | 9.21852 | 80.06812 | 24864 ft | 480 kts | 180° |
| 2026-04-25 15:47 | 9.18450 | 80.06744 | 24864 ft | 479 kts | 180° |
| 2026-04-25 15:47 | 9.15054 | 80.06677 | 24862 ft | 479 kts | 180° |
| 2026-04-25 15:47 | 9.11669 | 80.06611 | 24860 ft | 480 kts | 180° |
| 2026-04-25 15:48 | 9.08253 | 80.06546 | 24859 ft | 480 kts | 179° |
| 2026-04-25 15:48 | 9.04900 | 80.06482 | 24857 ft | 480 kts | 179° |
| 2026-04-25 15:48 | 9.01516 | 80.06417 | 24853 ft | 480 kts | 180° |
| 2026-04-25 15:48 | 8.98065 | 80.06350 | 24851 ft | 480 kts | 180° |
| 2026-04-25 15:49 | 8.94671 | 80.06284 | 24853 ft | 481 kts | 180° |
| 2026-04-25 15:49 | 8.91261 | 80.06218 | 24858 ft | 480 kts | 180° |
| 2026-04-25 15:49 | 8.87871 | 80.06153 | 24862 ft | 480 kts | 180° |
| 2026-04-25 15:49 | 8.84481 | 80.06089 | 24866 ft | 481 kts | 180° |
| 2026-04-25 15:50 | 8.81114 | 80.06024 | 24866 ft | 480 kts | 179° |
| 2026-04-25 15:50 | 8.77654 | 80.05961 | 24866 ft | 480 kts | 180° |
| 2026-04-25 15:50 | 8.74175 | 80.05894 | 24867 ft | 480 kts | 180° |
| 2026-04-25 15:50 | 8.70792 | 80.05826 | 24866 ft | 479 kts | 180° |
| 2026-04-25 15:51 | 8.67416 | 80.05760 | 24868 ft | 479 kts | 179° |
| 2026-04-25 15:51 | 8.65190 | 80.05717 | 24867 ft | 480 kts | 180° |
| 2026-04-25 15:51 | 8.60592 | 80.05627 | 24868 ft | 480 kts | 179° |
| 2026-04-25 15:51 | 8.57213 | 80.05566 | 24868 ft | 480 kts | 179° |
| 2026-04-25 15:52 | 8.53862 | 80.05506 | 24869 ft | 480 kts | 179° |
| 2026-04-25 15:52 | 8.50414 | 80.05441 | 24863 ft | 480 kts | 180° |
| 2026-04-25 15:52 | 8.47089 | 80.05377 | 24284 ft | 481 kts | 179° |
| 2026-04-25 15:52 | 8.43672 | 80.05312 | 23447 ft | 478 kts | 179° |
| 2026-04-25 15:53 | 8.40263 | 80.05245 | 22626 ft | 475 kts | 179° |
| 2026-04-25 15:53 | 8.36945 | 80.05180 | 21819 ft | 472 kts | 179° |
| 2026-04-25 15:53 | 8.33597 | 80.05115 | 20999 ft | 469 kts | 179° |
| 2026-04-25 15:53 | 8.30232 | 80.05048 | 20157 ft | 466 kts | 179° |
| 2026-04-25 15:54 | 8.26909 | 80.04984 | 19321 ft | 463 kts | 179° |
| 2026-04-25 15:54 | 8.23660 | 80.04923 | 18497 ft | 460 kts | 179° |
| 2026-04-25 15:54 | 8.20360 | 80.04858 | 17658 ft | 457 kts | 179° |
| 2026-04-25 15:54 | 8.17166 | 80.04790 | 16822 ft | 453 kts | 179° |
| 2026-04-25 15:55 | 8.14045 | 80.04724 | 16009 ft | 436 kts | 179° |
| 2026-04-25 15:55 | 8.11040 | 80.04658 | 15282 ft | 422 kts | 179° |
| 2026-04-25 15:55 | 8.08084 | 80.04588 | 14524 ft | 419 kts | 179° |
| 2026-04-25 15:55 | 8.05093 | 80.04518 | 13767 ft | 417 kts | 179° |
| 2026-04-25 15:56 | 8.02206 | 80.04457 | 13028 ft | 414 kts | 179° |
| 2026-04-25 15:56 | 7.99296 | 80.04401 | 12327 ft | 410 kts | 179° |
| 2026-04-25 15:56 | 7.96390 | 80.04342 | 11658 ft | 405 kts | 179° |
| 2026-04-25 15:56 | 7.93566 | 80.04285 | 11208 ft | 389 kts | 179° |
| 2026-04-25 15:57 | 7.90904 | 80.04227 | 10982 ft | 363 kts | 179° |
| 2026-04-25 15:57 | 7.88446 | 80.04170 | 10848 ft | 337 kts | 179° |
| 2026-04-25 15:57 | 7.86121 | 80.04113 | 10702 ft | 317 kts | 179° |
| 2026-04-25 15:57 | 7.83885 | 80.04065 | 10562 ft | 319 kts | 178° |
| 2026-04-25 15:58 | 7.81607 | 80.04022 | 10375 ft | 322 kts | 178° |
| 2026-04-25 15:58 | 7.79381 | 80.03975 | 10210 ft | 310 kts | 178° |
| 2026-04-25 15:58 | 7.77240 | 80.03925 | 9968 ft | 299 kts | 178° |
| 2026-04-25 15:58 | 7.75178 | 80.03883 | 9581 ft | 295 kts | 178° |
| 2026-04-25 15:59 | 7.73110 | 80.03838 | 9195 ft | 293 kts | 178° |
| 2026-04-25 15:59 | 7.71060 | 80.03811 | 8829 ft | 290 kts | 178° |
| 2026-04-25 15:59 | 7.69028 | 80.03783 | 8468 ft | 288 kts | 178° |
| 2026-04-25 15:59 | 7.67011 | 80.03747 | 8110 ft | 285 kts | 178° |
| 2026-04-25 16:00 | 7.65033 | 80.03702 | 7850 ft | 279 kts | 178° |
| 2026-04-25 16:00 | 7.64385 | 80.03687 | 7852 ft | 277 kts | 178° |
| 2026-04-25 16:00 | 7.61077 | 80.03624 | 7516 ft | 287 kts | 178° |
| 2026-04-25 16:00 | 7.59093 | 80.03585 | 7139 ft | 285 kts | 178° |
| 2026-04-25 16:01 | 7.57114 | 80.03545 | 6792 ft | 279 kts | 178° |
| 2026-04-25 16:01 | 7.55161 | 80.03506 | 6442 ft | 274 kts | 178° |
| 2026-04-25 16:01 | 7.53238 | 80.03468 | 5949 ft | 276 kts | 178° |
| 2026-04-25 16:01 | 7.51286 | 80.03432 | 5297 ft | 285 kts | 178° |
| 2026-04-25 16:02 | 7.49266 | 80.03397 | 4597 ft | 291 kts | 179° |
| 2026-04-25 16:02 | 7.47244 | 80.03355 | 3974 ft | 292 kts | 179° |
| 2026-04-25 16:02 | 7.45232 | 80.03310 | 3563 ft | 285 kts | 179° |
| 2026-04-25 16:02 | 7.43252 | 80.03271 | 3151 ft | 279 kts | 179° |
| 2026-04-25 16:03 | 7.41328 | 80.03321 | 2716 ft | 271 kts | 166° |
| 2026-04-25 16:03 | 7.39712 | 80.04161 | 2388 ft | 261 kts | 133° |
| 2026-04-25 16:03 | 7.38586 | 80.05566 | 2031 ft | 258 kts | 130° |
| 2026-04-25 16:03 | 7.37155 | 80.06595 | 1718 ft | 251 kts | 163° |
| 2026-04-25 16:04 | 7.35440 | 80.06610 | 1716 ft | 246 kts | 197° |
| 2026-04-25 16:04 | 7.34015 | 80.05619 | 1716 ft | 250 kts | 232° |
| 2026-04-25 16:04 | 7.33178 | 80.04052 | 1730 ft | 250 kts | 243° |
| 2026-04-25 16:04 | 7.32495 | 80.02496 | 1733 ft | 237 kts | 243° |
| 2026-04-25 16:05 | 7.31852 | 80.01018 | 1692 ft | 220 kts | 243° |
| 2026-04-25 16:05 | 7.31271 | 79.99661 | 1648 ft | 205 kts | 243° |
| 2026-04-25 16:05 | 7.29965 | 79.97344 | 1580 ft | 181 kts | 217° |
| 2026-04-25 16:06 | 7.28904 | 79.96754 | 1572 ft | 172 kts | 192° |
| 2026-04-25 16:06 | 7.27746 | 79.96360 | 1535 ft | 175 kts | 207° |
| 2026-04-25 16:06 | 7.26803 | 79.95589 | 1479 ft | 171 kts | 222° |
| 2026-04-25 16:06 | 7.26047 | 79.94673 | 1479 ft | 173 kts | 232° |
| 2026-04-25 16:07 | 7.25371 | 79.93659 | 1477 ft | 172 kts | 226° |
| 2026-04-25 16:07 | 7.25103 | 79.93366 | 1493 ft | 165 kts | 221° |
| 2026-04-25 16:07 | 7.23761 | 79.92155 | 1400 ft | 149 kts | 214° |
| 2026-04-25 16:07 | 7.22806 | 79.91735 | 954 ft | 151 kts | 192° |
| 2026-04-25 16:08 | 7.21883 | 79.91341 | 637 ft | 144 kts | 214° |
| 2026-04-25 16:08 | 7.21120 | 79.90723 | 485 ft | 137 kts | 217° |
| 2026-04-25 16:08 | 7.20354 | 79.90121 | 361 ft | 139 kts | 216° |
| 2026-04-25 16:08 | 7.19590 | 79.89520 | 180 ft | 141 kts | 216° |
| 2026-04-25 16:09 | 7.18809 | 79.88930 | 45 ft | 139 kts | 215° |
| 2026-04-25 16:09 | 7.18181 | 79.88446 | 41 ft | 82 kts | 221° |
| 2026-04-25 16:09 | 7.17813 | 79.88145 | 40 ft | 65 kts | 218° |
| 2026-04-25 16:09 | 7.17451 | 79.87862 | 40 ft | 62 kts | 218° |
| 2026-04-25 16:10 | 7.17165 | 79.87640 | 39 ft | 32 kts | 217° |
| 2026-04-25 16:10 | 7.17021 | 79.87529 | 39 ft | 15 kts | 216° |
| 2026-04-25 16:10 | 7.16926 | 79.87531 | 40 ft | 12 kts | 165° |
| 2026-04-25 16:10 | 7.16857 | 79.87568 | 41 ft | 10 kts | 126° |
| 2026-04-25 16:11 | 7.16859 | 79.87631 | 41 ft | 9 kts | 42° |
| 2026-04-25 16:11 | 7.16912 | 79.87675 | 40 ft | 10 kts | 38° |
| 2026-04-25 16:11 | 7.16971 | 79.87719 | 40 ft | 11 kts | 37° |
| 2026-04-25 16:11 | 7.17056 | 79.87785 | 40 ft | 20 kts | 41° |
| 2026-04-25 16:12 | 7.17185 | 79.87886 | 40 ft | 24 kts | 36° |
| 2026-04-25 16:12 | 7.17316 | 79.87987 | 40 ft | 23 kts | 36° |
| 2026-04-25 16:12 | 7.17441 | 79.88082 | 41 ft | 22 kts | 39° |
| 2026-04-25 16:12 | 7.17522 | 79.88145 | 41 ft | 21 kts | 37° |
| 2026-04-25 16:13 | 7.17622 | 79.88243 | 40 ft | 14 kts | 84° |
| 2026-04-25 16:13 | 7.17598 | 79.88306 | 41 ft | 6 kts | 102° |
| 2026-04-25 16:13 | 7.17613 | 79.88335 | 42 ft | 3 kts | 38° |
| 2026-04-25 16:13 | 7.17626 | 79.88345 | 42 ft | 2 kts | 38° |
| 2026-04-25 16:14 | 7.17642 | 79.88357 | 43 ft | 3 kts | 37° |
| 2026-04-25 16:14 | 7.17653 | 79.88366 | 43 ft | 0 kts | 38° |
| 2026-04-25 16:14 | 7.17655 | 79.88367 | 43 ft | 0 kts | 38° |